AirNav   Pilot Hours Calculator
 
 650 users online  

05MI Oakwood Heritage Hospital Heliport
Taylor, Michigan, USA

GOING TO TAYLOR?


FAA INFORMATION EFFECTIVE 05 DECEMBER 2019

Location

FAA Identifier: 05MI
Lat/Long: 42-14-11.0000N 083-16-35.0000W
42-14.183333N 083-16.583333W
42.2363889,-83.2763889
(estimated)
Elevation: 621 ft. / 189 m (estimated)
From city: 1 mile SW of TAYLOR, MI
Time zone: UTC -5 (UTC -4 during Daylight Saving Time)
Zip code: 48180

Heliport Operations

Heliport use: Private use. Permission required prior to landing
Activation date: 01/2011
Control tower: no
ARTCC: CLEVELAND CENTER
FSS: LANSING FLIGHT SERVICE STATION
Attendance: UNATNDD
Wind indicator: yes
Segmented circle: no

Heliport Communications

WX ASOS at DTW (4 nm SW): PHONE 734-955-5015
WX AWOS-3 at ONZ (10 nm SE): 119.675 (734-692-9686)
WX ASOS at YIP (11 nm W): PHONE 734-961-6843
WX ASOS at DET (16 nm NE): PHONE 313-371-9696
WX AWOS-3 at VLL (19 nm N): 119.475 (248-288-4649)
WX AWOS-3 at TTF (19 nm S): 119.075 (734-384-0259)

Nearby radio navigation aids

VOR radial/distance  VOR name  Freq  Var
DXOr077/4.2DETROIT VOR/DME113.4006W
CRLr038/13.9CARLETON VOR/DME115.7003W
SVMr129/17.5SALEM VORTAC114.3003W
YQGr274/19.9WINDSOR VOR/DME113.8006W

 
NDB name  Hdg/Dist  Freq  Var  ID
GROSSE ILE333/9.841907WRYS .-. -.-- ...
TECUMSEH072/29.723906WTCU - -.-. ..-

Heliport Services

Runway Information

Helipad H1

Dimensions: 42 x 30 ft. / 13 x 9 m
Surface: concrete, in fair condition
Runway edge lights: PERI
Traffic pattern: leftleft

Heliport Ownership and Management from official FAA records

Ownership: Privately-owned
Owner: OAKWOOD HERITAGE HOSPITAL
10000 TELEGRAPH RD
TAYLOR, MI 48180
Phone 313-295-5000
Manager: WILLIAM LEAVENS
10000 TELEGRAPH RD
TAYLOR, MI 48180
Phone (313) 375-7069
DIRECTOR OF SECURITY / SAFETY

Additional Remarks

+175' UNLIT TOWER 594 FT NW OF HELIPORT.
FOR CD CTC DETROIT APCH AT 800-499-8181.

Instrument Procedures

There are no published instrument procedures at 05MI.

Some nearby airports with instrument procedures:

KDTW - Detroit Metropolitan Wayne County Airport (4 nm SW)
KONZ - Grosse Ile Municipal Airport (10 nm SE)
1D2 - Canton-Plymouth-Mettetal Airport (10 nm NW)
KYIP - Willow Run Airport (11 nm W)
KDET - Coleman A Young Municipal Airport (16 nm NE)
KVLL - Oakland/Troy Airport (19 nm N)
KTTF - Custer Airport (19 nm S)
 
Loc | Ops | Rwys | IFR | FBO | Links
Com | Nav | Svcs | Stats | Notes
Aerial photo
No photo
 
Sectional chart

 
Airport distance calculator
Flying to Oakwood Heritage Hospital Heliport? Find the distance to fly.

From to 05MI

Sunrise and sunset
Times for 07-Dec-2019
 Local
(UTC-5)
 Zulu
(UTC)
Morning civil twilight07:1812:18
Sunrise07:4912:49
Sunset17:0022:00
Evening civil twilight17:3122:31

Current date and time
Zulu (UTC)  07-Dec-2019 08:35:36
Local (UTC-5)  07-Dec-2019 03:35:36
 
METAR
KDTW 
3nm W 
070753Z 00000KT 10SM BKN170 M03/M09 A3037 RMK AO2 SLP292 T10281094
KONZ 
10nm SE 
070816Z AUTO 35003KT 10SM CLR M03/M08 A3036 RMK AO2 T10331081
KYIP 
11nm W 
070753Z 00000KT 10SM CLR M03/M08 A3037 RMK AO2 SLP289 T10281083 $
CYQG 
14nm E 
070800Z AUTO 35003KT 9SM FEW150 M03/M08 A3037 RMK SLP294
KDET 
15nm NE 
070753Z 00000KT 10SM CLR M03/M09 A3037 RMK AO2 SLP292 T10281094
KVLL 
19nm N 
070815Z AUTO 00000KT 10SM CLR M03/M08 A3038 RMK AO2 T10321085
KTTF 
19nm S 
070815Z AUTO 00000KT 10SM CLR M04/M07 A3037 RMK AO2 T10441072
TAF
KDTW 
3nm W 
070540Z 0706/0812 31005KT P6SM BKN250 FM070900 VRB03KT P6SM OVC150 FM071500 22005KT P6SM OVC100 FM072100 33010KT P6SM OVC150 FM080300 19010KT P6SM BKN200
KYIP 
11nm W 
070540Z 0706/0806 31005KT P6SM BKN250 FM070900 VRB03KT P6SM OVC150 FM071500 22005KT P6SM OVC100 FM072100 33010KT P6SM OVC150 FM080300 19010KT P6SM BKN200
CYQG 
14nm E 
070539Z 0706/0806 32005KT P6SM BKN180 BECMG 0708/0710 VRB03KT FM071400 VRB03KT P6SM BKN080 BECMG 0716/0718 20010KT BECMG 0722/0724 18006KT FM080300 19008KT P6SM SCT080 BKN220 RMK FCST BASED ON AUTO OBS. NXT FCST BY 071200Z
KDET 
15nm NE 
070540Z 0706/0806 33005KT P6SM BKN250 FM070900 VRB03KT P6SM OVC150 FM071500 22005KT P6SM OVC100 FM072100 33010KT P6SM OVC150 FM080300 19010KT P6SM BKN200
NOTAMs
Click for the latest NOTAMs
NOTAMs are issued by the DoD/FAA and will open in a separate window not controlled by AirNav.

 

 
 

Would you like to see your business listed on this page?

 If your business provides an interesting product or service to pilots, flight crews, aircraft, or users of the Oakwood Heritage Hospital Heliport, you should consider listing it here.  To start the listing process, click on the button below
 
Add a business
 

Other Pages about Oakwood Heritage Hospital Heliport

Update a link
 
Copyright © AirNav, LLC. All rights reserved. Privacy Policy  Contact